createdAt,value
2019-01-30T00:01:06.112Z,94913.12
2019-01-30T00:02:41.444Z,94911.61
2019-01-30T00:04:17.037Z,94909.78
2019-01-30T00:05:52.722Z,94910.51
2019-01-30T00:07:27.993Z,94903.46
2019-01-30T00:09:03.404Z,94900.55
2019-01-30T00:10:51.465Z,94896.59
2019-01-30T00:12:26.703Z,94886.47
2019-01-30T00:14:08.244Z,94891.36
2019-01-30T00:15:44.750Z,94891.94
2019-01-30T00:17:21.168Z,94889.84
2019-01-30T00:18:59.527Z,94890.08
2019-01-30T00:20:35.728Z,94882.98
2019-01-30T00:22:15.729Z,94883.78
2019-01-30T00:23:50.908Z,94881.08
2019-01-30T00:25:28.302Z,94874.42
2019-01-30T00:27:05.098Z,94871.97
2019-01-30T00:28:42.423Z,94869.44
2019-01-30T00:30:25.197Z,94866.18
2019-01-30T00:32:03.527Z,94869.27
2019-01-30T00:33:38.715Z,94871.13
2019-01-30T00:35:19.953Z,94865.30
2019-01-30T00:36:57.705Z,94864.55
2019-01-30T00:38:33.411Z,94861.20
2019-01-30T00:40:14.028Z,94856.92
2019-01-30T00:41:54.398Z,94853.08
2019-01-30T00:43:29.590Z,94854.42
2019-01-30T00:45:09.475Z,94855.87
2019-01-30T00:46:44.839Z,94847.33
2019-01-30T00:48:22.513Z,94847.91
2019-01-30T00:49:57.792Z,94851.11
2019-01-30T00:51:33.453Z,94844.06
2019-01-30T00:53:08.914Z,94851.11
2019-01-30T00:54:44.796Z,94839.20
2019-01-30T00:56:19.943Z,94849.41
2019-01-30T00:57:55.259Z,94837.14
2019-01-30T00:59:30.674Z,94836.56
2019-01-30T01:01:10.064Z,94838.07
2019-01-30T01:02:45.753Z,94829.40
2019-01-30T01:04:21.236Z,94832.89
2019-01-30T01:05:56.663Z,94841.33
2019-01-30T01:07:31.834Z,94827.63
2019-01-30T01:09:10.227Z,94829.23
2019-01-30T01:10:45.490Z,94829.72
2019-01-30T01:12:22.497Z,94838.27
2019-01-30T01:14:10.155Z,94834.95
2019-01-30T01:15:54.691Z,94831.34
2019-01-30T01:17:29.840Z,94828.44
2019-01-30T01:19:06.046Z,94826.92
2019-01-30T01:20:41.195Z,94832.34
2019-01-30T01:22:17.650Z,94829.69
2019-01-30T01:23:54.537Z,94824.59
2019-01-30T01:25:29.771Z,94827.67
2019-01-30T01:27:05.613Z,94829.14
2019-01-30T01:28:40.903Z,94826.63
2019-01-30T01:30:25.239Z,94821.02
2019-01-30T01:32:00.063Z,94825.38
2019-01-30T01:33:35.245Z,94821.20
2019-01-30T01:35:10.528Z,94823.47
2019-01-30T01:36:50.209Z,94820.09
2019-01-30T01:38:25.410Z,94816.59
2019-01-30T01:40:00.607Z,94815.95
2019-01-30T01:41:36.031Z,94806.18
2019-01-30T01:43:12.605Z,94810.31
2019-01-30T01:44:48.040Z,94801.88
2019-01-30T01:46:23.719Z,94800.70
2019-01-30T01:48:02.845Z,94804.22
2019-01-30T01:49:38.361Z,94796.08
2019-01-30T01:51:14.013Z,94798.52
2019-01-30T01:52:50.105Z,94790.48
2019-01-30T01:54:29.068Z,94794.91
2019-01-30T01:56:05.789Z,94777.05
2019-01-30T01:57:41.200Z,94775.86
2019-01-30T01:59:16.937Z,94775.86
2019-01-30T02:00:54.252Z,94774.95
2019-01-30T02:02:30.070Z,94768.25
2019-01-30T02:04:05.867Z,94761.73
2019-01-30T02:05:41.909Z,94758.71
2019-01-30T02:07:17.411Z,94755.21
2019-01-30T02:08:53.178Z,94754.98
2019-01-30T02:10:28.880Z,94752.47
2019-01-30T02:12:05.570Z,94754.11
2019-01-30T02:13:41.239Z,94751.26
2019-01-30T02:15:19.871Z,94744.22
2019-01-30T02:16:58.877Z,94737.64
2019-01-30T02:18:34.514Z,94739.63
2019-01-30T02:20:22.910Z,94727.58
2019-01-30T02:21:58.299Z,94728.42
2019-01-30T02:23:34.280Z,94720.71
2019-01-30T02:25:10.946Z,94712.68
2019-01-30T02:26:47.877Z,94712.44
2019-01-30T02:28:23.493Z,94705.16
2019-01-30T02:29:59.453Z,94711.63
2019-01-30T02:31:37.335Z,94707.02
2019-01-30T02:33:13.080Z,94697.65
2019-01-30T02:34:49.860Z,94706.84
2019-01-30T02:36:25.314Z,94699.91
2019-01-30T02:38:00.406Z,94700.84
2019-01-30T02:39:35.837Z,94684.19
2019-01-30T02:41:11.297Z,94696.48
2019-01-30T02:42:46.798Z,94690.72
2019-01-30T02:44:22.026Z,94681.52
2019-01-30T02:45:57.147Z,94692.47
2019-01-30T02:47:32.685Z,94681.83
2019-01-30T02:49:07.746Z,94681.08
2019-01-30T02:50:42.956Z,94677.50
2019-01-30T02:52:18.555Z,94666.20
2019-01-30T02:53:53.882Z,94670.80
2019-01-30T02:55:29.189Z,94665.86
2019-01-30T02:57:04.860Z,94660.23
2019-01-30T02:58:40.325Z,94658.66
2019-01-30T03:00:29.297Z,94659.06
2019-01-30T03:02:17.846Z,94662.73
2019-01-30T03:03:53.096Z,94662.23
2019-01-30T03:05:28.629Z,94661.33
2019-01-30T03:07:03.948Z,94660.23
2019-01-30T03:08:39.379Z,94654.70
2019-01-30T03:10:19.341Z,94653.20
2019-01-30T03:11:55.749Z,94658.31
2019-01-30T03:13:30.945Z,94663.08
2019-01-30T03:15:08.152Z,94664.48
2019-01-30T03:16:44.190Z,94657.95
2019-01-30T03:18:22.223Z,94651.52
2019-01-30T03:19:57.282Z,94655.02
2019-01-30T03:21:38.339Z,94647.16
2019-01-30T03:23:13.488Z,94640.22
2019-01-30T03:24:49.369Z,94646.81
2019-01-30T03:26:24.707Z,94650.34
2019-01-30T03:27:59.807Z,94647.66
2019-01-30T03:29:34.872Z,94642.97
2019-01-30T03:31:17.969Z,94643.48
2019-01-30T03:32:47.297Z,94638.95
2019-01-30T03:34:22.378Z,94648.08
2019-01-30T03:35:57.470Z,94637.78
2019-01-30T03:37:32.667Z,94639.47
2019-01-30T03:39:09.343Z,94636.86
2019-01-30T03:40:44.492Z,94632.27
2019-01-30T03:42:19.756Z,94629.03
2019-01-30T03:43:55.228Z,94628.11
2019-01-30T03:45:31.019Z,94625.67
2019-01-30T03:47:06.571Z,94624.75
2019-01-30T03:48:43.052Z,94619.80
2019-01-30T03:50:18.615Z,94618.13
2019-01-30T03:51:55.652Z,94619.05
2019-01-30T03:53:33.089Z,94618.05
2019-01-30T03:55:09.960Z,94615.72
2019-01-30T03:56:46.558Z,94613.05
2019-01-30T03:58:23.104Z,94609.10
2019-01-30T03:59:58.334Z,94606.84
2019-01-30T04:01:33.474Z,94606.19
2019-01-30T04:03:08.967Z,94606.77
2019-01-30T04:04:44.054Z,94603.44
2019-01-30T04:06:19.167Z,94601.51
2019-01-30T04:07:54.349Z,94607.52
2019-01-30T04:09:30.581Z,94594.58
2019-01-30T04:11:06.692Z,94593.72
2019-01-30T04:12:42.228Z,94596.22
2019-01-30T04:14:17.293Z,94591.22
2019-01-30T04:15:52.595Z,94586.45
2019-01-30T04:17:27.680Z,94591.22
2019-01-30T04:19:03.189Z,94591.22
2019-01-30T04:20:39.262Z,94587.38
2019-01-30T04:22:18.400Z,94585.35
2019-01-30T04:23:53.575Z,94592.80
2019-01-30T04:25:28.686Z,94583.02
2019-01-30T04:27:06.425Z,94586.11
2019-01-30T04:28:42.799Z,94585.52
2019-01-30T04:30:20.297Z,94586.93
2019-01-30T04:31:57.829Z,94582.16
2019-01-30T04:33:41.393Z,94582.51
2019-01-30T04:35:16.746Z,94584.09
2019-01-30T04:36:51.943Z,94579.25
2019-01-30T04:38:27.064Z,94567.27
2019-01-30T04:40:02.636Z,94562.19
2019-01-30T04:41:38.102Z,94562.84
2019-01-30T04:43:13.685Z,94559.59
2019-01-30T04:44:49.218Z,94564.19
2019-01-30T04:46:24.347Z,94558.59
2019-01-30T04:47:59.417Z,94557.25
2019-01-30T04:49:34.864Z,94559.93
2019-01-30T04:51:12.674Z,94556.84
2019-01-30T04:52:48.256Z,94558.08
2019-01-30T04:54:23.482Z,94558.93
2019-01-30T04:55:58.629Z,94554.41
2019-01-30T04:57:33.983Z,94549.80
2019-01-30T04:59:09.650Z,94559.83
2019-01-30T05:00:44.934Z,94556.67
2019-01-30T05:02:20.095Z,94548.30
2019-01-30T05:03:55.475Z,94553.14
2019-01-30T05:05:30.679Z,94542.19
2019-01-30T05:07:06.196Z,94542.85
2019-01-30T05:08:41.283Z,94546.70
2019-01-30T05:10:16.466Z,94532.15
2019-01-30T05:11:51.891Z,94537.59
2019-01-30T05:13:28.541Z,94542.61
2019-01-30T05:15:05.596Z,94536.33
2019-01-30T05:16:40.728Z,94538.25
2019-01-30T05:18:16.285Z,94536.98
2019-01-30T05:19:51.687Z,94532.08
2019-01-30T05:21:26.920Z,94532.83
2019-01-30T05:23:02.067Z,94530.30
2019-01-30T05:24:37.621Z,94532.22
2019-01-30T05:26:13.082Z,94532.97
2019-01-30T05:27:49.785Z,94539.08
2019-01-30T05:29:25.627Z,94528.20
2019-01-30T05:31:01.027Z,94534.24
2019-01-30T05:32:36.248Z,94531.73
2019-01-30T05:34:11.461Z,94524.19
2019-01-30T05:35:46.961Z,94525.53
2019-01-30T05:37:22.260Z,94521.10
2019-01-30T05:38:57.887Z,94527.20
2019-01-30T05:40:36.255Z,94527.96
2019-01-30T05:42:11.971Z,94525.21
2019-01-30T05:43:47.720Z,94528.30
2019-01-30T05:45:22.921Z,94523.29
2019-01-30T05:47:00.606Z,94520.95
2019-01-30T05:48:36.475Z,94519.94
2019-01-30T05:50:14.175Z,94522.37
2019-01-30T05:51:52.236Z,94518.11
2019-01-30T05:53:29.772Z,94508.23
2019-01-30T05:55:05.254Z,94506.72
2019-01-30T05:56:40.919Z,94510.08
2019-01-30T05:58:16.981Z,94502.71
2019-01-30T05:59:52.551Z,94501.64
2019-01-30T06:01:27.712Z,94497.09
2019-01-30T06:03:03.100Z,94493.84
2019-01-30T06:04:40.440Z,94499.61
2019-01-30T06:06:15.648Z,94503.20
2019-01-30T06:07:51.938Z,94502.39
2019-01-30T06:09:28.510Z,94506.98
2019-01-30T06:11:03.658Z,94506.58
2019-01-30T06:12:39.297Z,94506.80
2019-01-30T06:14:14.488Z,94510.89
2019-01-30T06:15:49.719Z,94506.58
2019-01-30T06:17:29.831Z,94501.70
2019-01-30T06:19:08.246Z,94506.31
2019-01-30T06:20:48.549Z,94507.14
2019-01-30T06:22:24.807Z,94504.80
2019-01-30T06:24:04.323Z,94513.42
2019-01-30T06:25:44.692Z,94514.00
2019-01-30T06:27:20.308Z,94504.96
2019-01-30T06:28:59.150Z,94504.64
2019-01-30T06:30:36.371Z,94510.74
2019-01-30T06:32:21.771Z,94509.89
2019-01-30T06:34:05.541Z,94513.91
2019-01-30T06:35:41.149Z,94510.48
2019-01-30T06:37:18.276Z,94517.52
2019-01-30T06:38:53.740Z,94515.34
2019-01-30T06:40:35.845Z,94510.23
2019-01-30T06:42:11.526Z,94515.76
2019-01-30T06:43:46.640Z,94516.76
2019-01-30T06:45:22.437Z,94513.25
2019-01-30T06:46:57.576Z,94513.00
2019-01-30T06:48:33.102Z,94518.36
2019-01-30T06:50:10.511Z,94516.42
2019-01-30T06:51:46.022Z,94521.28
2019-01-30T06:53:21.841Z,94514.50
2019-01-30T06:55:01.569Z,94515.52
2019-01-30T06:56:38.571Z,94515.59
2019-01-30T06:58:13.865Z,94513.59
2019-01-30T06:59:51.486Z,94515.59
2019-01-30T07:01:28.731Z,94517.77
2019-01-30T07:03:05.163Z,94517.77
2019-01-30T07:04:40.560Z,94512.31
2019-01-30T07:06:16.123Z,94514.00
2019-01-30T07:07:51.516Z,94513.93
2019-01-30T07:09:27.180Z,94508.23
2019-01-30T07:11:10.390Z,94501.19
2019-01-30T07:12:40.290Z,94508.05
2019-01-30T07:14:18.016Z,94508.80
2019-01-30T07:15:53.294Z,94512.41
2019-01-30T07:17:34.271Z,94512.66
2019-01-30T07:19:13.861Z,94512.06
2019-01-30T07:20:49.093Z,94505.20
2019-01-30T07:22:29.284Z,94509.39
2019-01-30T07:24:05.057Z,94511.98
2019-01-30T07:25:42.356Z,94504.13
2019-01-30T07:27:17.787Z,94505.39
2019-01-30T07:28:53.077Z,94505.05
2019-01-30T07:30:33.412Z,94506.03
2019-01-30T07:32:09.048Z,94507.37
2019-01-30T07:33:44.396Z,94501.84
2019-01-30T07:35:19.846Z,94503.27
2019-01-30T07:36:55.432Z,94495.58
2019-01-30T07:38:34.228Z,94496.16
2019-01-30T07:40:11.281Z,94501.27
2019-01-30T07:41:48.315Z,94493.66
2019-01-30T07:43:27.386Z,94492.65
2019-01-30T07:45:17.923Z,94488.72
2019-01-30T07:46:56.438Z,94491.89
2019-01-30T07:48:32.048Z,94490.97
2019-01-30T07:50:10.303Z,94492.31
2019-01-30T07:51:50.659Z,94488.30
2019-01-30T07:53:25.870Z,94493.66
2019-01-30T07:55:02.952Z,94490.97
2019-01-30T07:56:38.341Z,94489.05
2019-01-30T07:58:29.211Z,94492.38
2019-01-30T08:00:07.436Z,94485.95
2019-01-30T08:01:53.703Z,94492.48
2019-01-30T08:03:32.314Z,94484.02
2019-01-30T08:05:11.495Z,94490.64
2019-01-30T08:06:46.790Z,94480.59
2019-01-30T08:08:25.636Z,94481.69
2019-01-30T08:10:01.327Z,94482.94
2019-01-30T08:11:37.134Z,94490.72
2019-01-30T08:13:21.551Z,94482.27
2019-01-30T08:14:57.843Z,94483.86
2019-01-30T08:16:39.674Z,94483.10
2019-01-30T08:18:19.774Z,94485.61
2019-01-30T08:20:09.170Z,94487.04
2019-01-30T08:21:45.182Z,94491.05
2019-01-30T08:23:32.635Z,94484.45
2019-01-30T08:25:09.360Z,94483.86
2019-01-30T08:26:46.144Z,94482.11
2019-01-30T08:28:21.891Z,94477.05
2019-01-30T08:29:57.458Z,94474.13
2019-01-30T08:31:33.193Z,94471.36
2019-01-30T08:33:10.953Z,94465.09
2019-01-30T08:34:46.614Z,94464.67
2019-01-30T08:36:21.966Z,94451.02
2019-01-30T08:38:02.522Z,94456.05
2019-01-30T08:39:37.983Z,94462.07
2019-01-30T08:41:13.216Z,94454.28
2019-01-30T08:42:48.262Z,94455.72
2019-01-30T08:44:27.234Z,94455.46
2019-01-30T08:46:05.676Z,94456.97
2019-01-30T08:47:46.927Z,94455.68
2019-01-30T08:49:22.078Z,94454.25
2019-01-30T08:50:57.674Z,94448.55
2019-01-30T08:52:35.342Z,94464.12
2019-01-30T08:54:10.448Z,94454.25
2019-01-30T08:55:46.001Z,94438.17
2019-01-30T08:57:23.442Z,94457.23
2019-01-30T08:58:58.948Z,94458.73
2019-01-30T09:00:34.150Z,94455.30
2019-01-30T09:02:11.344Z,94452.70
2019-01-30T09:03:46.437Z,94454.30
2019-01-30T09:05:22.047Z,94462.17
2019-01-30T09:06:57.713Z,94463.09
2019-01-30T09:08:32.902Z,94462.16
2019-01-30T09:10:12.985Z,94459.11
2019-01-30T09:11:50.141Z,94455.75
2019-01-30T09:13:25.726Z,94461.73
2019-01-30T09:15:06.002Z,94465.70
2019-01-30T09:16:46.393Z,94464.09
2019-01-30T09:18:24.941Z,94469.81
2019-01-30T09:20:02.396Z,94469.11
2019-01-30T09:21:40.643Z,94474.77
2019-01-30T09:23:15.786Z,94467.78
2019-01-30T09:24:51.087Z,94467.50
2019-01-30T09:26:29.735Z,94468.80
2019-01-30T09:28:05.350Z,94473.30
2019-01-30T09:29:43.852Z,94467.90
2019-01-30T09:31:19.318Z,94466.06
2019-01-30T09:33:00.483Z,94475.61
2019-01-30T09:34:37.118Z,94477.06
2019-01-30T09:36:13.640Z,94469.23
2019-01-30T09:37:48.739Z,94469.23
2019-01-30T09:39:24.846Z,94473.75
2019-01-30T09:41:00.358Z,94471.33
2019-01-30T09:42:36.821Z,94467.14
2019-01-30T09:44:14.230Z,94467.90
2019-01-30T09:45:49.880Z,94465.80
2019-01-30T09:47:29.782Z,94465.41
2019-01-30T09:49:09.058Z,94466.03
2019-01-30T09:50:44.524Z,94460.72
2019-01-30T09:52:26.847Z,94462.76
2019-01-30T09:54:01.611Z,94467.52
2019-01-30T09:55:40.777Z,94461.61
2019-01-30T09:57:17.125Z,94458.09
2019-01-30T09:58:54.073Z,94458.00
2019-01-30T10:00:34.075Z,94468.42
2019-01-30T10:02:09.279Z,94473.29
2019-01-30T10:03:45.288Z,94472.77
2019-01-30T10:05:23.363Z,94469.09
2019-01-30T10:07:01.627Z,94474.31
2019-01-30T10:08:45.784Z,94473.09
2019-01-30T10:10:35.681Z,94472.27
2019-01-30T10:12:11.100Z,94474.06
2019-01-30T10:13:50.081Z,94479.38
2019-01-30T10:15:26.589Z,94481.02
2019-01-30T10:17:02.143Z,94479.52
2019-01-30T10:18:37.233Z,94477.53
2019-01-30T10:20:15.836Z,94479.19
2019-01-30T10:21:52.306Z,94480.45
2019-01-30T10:23:30.207Z,94474.80
2019-01-30T10:25:05.632Z,94476.27
2019-01-30T10:26:45.216Z,94483.08
2019-01-30T10:28:19.913Z,94481.99
2019-01-30T10:29:58.870Z,94481.63
2019-01-30T10:31:39.991Z,94467.87
2019-01-30T10:33:19.723Z,94466.97
2019-01-30T10:34:58.963Z,94479.87
2019-01-30T10:36:36.698Z,94473.87
2019-01-30T10:38:18.415Z,94477.64
2019-01-30T10:39:56.643Z,94461.59
2019-01-30T10:41:31.721Z,94475.94
2019-01-30T10:43:07.142Z,94470.89
2019-01-30T10:44:42.273Z,94469.85
2019-01-30T10:46:20.004Z,94458.48
2019-01-30T10:48:03.317Z,94475.18
2019-01-30T10:49:47.464Z,94470.56
2019-01-30T10:51:20.798Z,94466.05
2019-01-30T10:52:58.222Z,94472.51
2019-01-30T10:54:38.671Z,94477.66
2019-01-30T10:56:16.511Z,94473.63
2019-01-30T10:57:52.641Z,94477.48
2019-01-30T10:59:30.499Z,94472.18
2019-01-30T11:01:07.344Z,94473.61
2019-01-30T11:02:43.052Z,94467.55
2019-01-30T11:04:26.631Z,94459.34
2019-01-30T11:06:01.779Z,94468.22
2019-01-30T11:07:41.099Z,94464.78
2019-01-30T11:09:19.517Z,94468.20
2019-01-30T11:10:56.488Z,94463.30
2019-01-30T11:12:39.224Z,94465.23
2019-01-30T11:14:14.770Z,94460.45
2019-01-30T11:15:50.128Z,94459.91
2019-01-30T11:17:28.035Z,94457.88
2019-01-30T11:19:05.897Z,94457.12
2019-01-30T11:20:44.415Z,94462.49
2019-01-30T11:22:19.542Z,94460.00
2019-01-30T11:23:57.649Z,94454.52
2019-01-30T11:25:35.117Z,94452.39
2019-01-30T11:27:11.123Z,94457.26
2019-01-30T11:29:01.172Z,94446.35
2019-01-30T11:30:44.046Z,94457.88
2019-01-30T11:32:19.223Z,94444.69
2019-01-30T11:33:56.348Z,94450.92
2019-01-30T11:35:34.697Z,94445.12
2019-01-30T11:37:14.708Z,94443.09
2019-01-30T11:38:55.423Z,94448.18
2019-01-30T11:40:36.835Z,94451.60
2019-01-30T11:42:15.605Z,94445.09
2019-01-30T11:43:50.744Z,94444.02
2019-01-30T11:45:35.136Z,94449.19
2019-01-30T11:47:11.036Z,94443.38
2019-01-30T11:48:56.032Z,94438.38
2019-01-30T11:50:23.566Z,94446.59
2019-01-30T11:51:58.824Z,94448.31
2019-01-30T11:53:40.149Z,94452.20
2019-01-30T11:55:15.809Z,94451.72
2019-01-30T11:57:00.489Z,94455.80
2019-01-30T11:58:47.391Z,94457.90
2019-01-30T12:00:50.659Z,94460.11
2019-01-30T12:02:26.198Z,94455.43
2019-01-30T12:04:01.491Z,94455.78
2019-01-30T12:05:39.998Z,94449.95
2019-01-30T12:07:17.252Z,94456.53
2019-01-30T12:08:52.447Z,94457.06
2019-01-30T12:10:27.624Z,94455.13
2019-01-30T12:12:06.040Z,94457.34
2019-01-30T12:13:42.134Z,94451.28
2019-01-30T12:15:20.948Z,94459.19
2019-01-30T12:16:56.194Z,94455.80
2019-01-30T12:18:31.672Z,94450.44
2019-01-30T12:20:12.067Z,94453.17
2019-01-30T12:21:48.050Z,94454.13
2019-01-30T12:23:23.578Z,94455.52
2019-01-30T12:25:02.329Z,94452.15
2019-01-30T12:26:37.732Z,94451.17
2019-01-30T12:28:13.296Z,94451.56
2019-01-30T12:29:52.170Z,94454.91
2019-01-30T12:31:27.609Z,94452.86
2019-01-30T12:33:04.415Z,94444.84
2019-01-30T12:34:41.134Z,94447.14
2019-01-30T12:36:19.680Z,94448.07
2019-01-30T12:37:57.875Z,94451.35
2019-01-30T12:39:33.508Z,94447.52
2019-01-30T12:41:10.580Z,94453.43
2019-01-30T12:42:46.932Z,94452.97
2019-01-30T12:44:33.620Z,94458.53
2019-01-30T12:46:12.267Z,94457.05
2019-01-30T12:47:47.942Z,94451.72
2019-01-30T12:49:23.414Z,94454.73
2019-01-30T12:50:58.648Z,94453.66
2019-01-30T12:52:47.892Z,94456.18
2019-01-30T12:54:24.736Z,94456.55
2019-01-30T12:56:02.336Z,94457.09
2019-01-30T12:57:39.179Z,94458.59
2019-01-30T12:59:25.210Z,94458.80
2019-01-30T13:01:21.418Z,94453.50
2019-01-30T13:03:09.177Z,94458.85
2019-01-30T13:04:45.694Z,94456.02
2019-01-30T13:06:24.367Z,94457.05
2019-01-30T13:08:02.116Z,94458.26
2019-01-30T13:09:40.169Z,94465.00
2019-01-30T13:11:22.867Z,94457.94
2019-01-30T13:13:03.927Z,94456.07
2019-01-30T13:14:39.771Z,94459.78
2019-01-30T13:16:18.652Z,94461.13
2019-01-30T13:17:55.406Z,94454.19
2019-01-30T13:19:33.867Z,94461.39
2019-01-30T13:21:09.944Z,94461.88
2019-01-30T13:22:46.550Z,94461.08
2019-01-30T13:24:24.681Z,94458.34
2019-01-30T13:26:00.824Z,94465.86
2019-01-30T13:27:38.067Z,94464.88
2019-01-30T13:29:13.486Z,94468.77
2019-01-30T13:30:51.688Z,94465.97
2019-01-30T13:32:28.395Z,94469.69
2019-01-30T13:34:06.552Z,94465.38
2019-01-30T13:35:42.767Z,94471.08
2019-01-30T13:37:18.363Z,94468.93
2019-01-30T13:38:53.772Z,94468.75
2019-01-30T13:40:36.411Z,94464.42
2019-01-30T13:42:10.216Z,94472.80
2019-01-30T13:43:53.005Z,94469.95
2019-01-30T13:45:31.620Z,94471.89
2019-01-30T13:47:17.248Z,94466.56
2019-01-30T13:48:55.437Z,94477.47
2019-01-30T13:50:30.795Z,94476.72
2019-01-30T13:52:16.399Z,94476.23
2019-01-30T13:54:24.348Z,94478.61
2019-01-30T13:56:23.912Z,94484.52
2019-01-30T13:58:16.645Z,94475.91
2019-01-30T14:02:29.103Z,94486.56
2019-01-30T14:06:23.807Z,94485.51
2019-01-30T14:07:59.670Z,94492.01
2019-01-30T14:09:39.513Z,94497.55
2019-01-30T14:11:19.435Z,94493.25
2019-01-30T14:13:03.318Z,94500.28
2019-01-30T14:14:40.110Z,94500.23
2019-01-30T14:16:18.569Z,94507.59
2019-01-30T14:17:57.828Z,94506.66
2019-01-30T14:19:34.733Z,94505.91
2019-01-30T14:21:15.785Z,94509.25
2019-01-30T14:22:56.655Z,94503.83
2019-01-30T14:24:41.701Z,94508.72
2019-01-30T14:26:20.632Z,94509.36
2019-01-30T14:28:02.140Z,94509.17
2019-01-30T14:29:41.338Z,94515.19
2019-01-30T14:31:34.493Z,94518.30
2019-01-30T14:33:14.701Z,94516.33
2019-01-30T14:34:54.683Z,94514.11
2019-01-30T14:36:37.688Z,94521.81
2019-01-30T14:38:16.259Z,94521.73
2019-01-30T14:40:00.397Z,94522.73
2019-01-30T14:41:48.422Z,94520.40
2019-01-30T14:43:36.310Z,94526.69
2019-01-30T14:45:24.209Z,94524.70
2019-01-30T14:46:59.604Z,94530.10
2019-01-30T14:48:35.502Z,94534.89
2019-01-30T14:50:18.536Z,94538.48
2019-01-30T14:51:54.685Z,94534.70
2019-01-30T14:53:35.061Z,94537.22
2019-01-30T14:55:25.457Z,94543.53
2019-01-30T14:57:07.421Z,94537.68
2019-01-30T14:58:49.397Z,94542.75
2019-01-30T15:00:40.048Z,94531.02
2019-01-30T15:02:21.934Z,94533.55
2019-01-30T15:03:58.025Z,94537.80
2019-01-30T15:05:47.423Z,94536.13
2019-01-30T15:07:34.522Z,94541.66
2019-01-30T15:09:14.903Z,94542.09
2019-01-30T15:10:55.814Z,94543.19
2019-01-30T15:12:48.652Z,94549.25
2019-01-30T15:14:29.320Z,94545.71
2019-01-30T15:16:09.165Z,94547.05
2019-01-30T15:17:57.496Z,94556.30
2019-01-30T15:19:43.022Z,94568.38
2019-01-30T15:21:45.819Z,94564.19
2019-01-30T15:23:46.307Z,94557.91
2019-01-30T15:25:32.695Z,94559.83
2019-01-30T15:27:16.932Z,94562.36
2019-01-30T15:29:04.611Z,94564.72
2019-01-30T15:30:52.413Z,94567.37
2019-01-30T15:32:38.312Z,94566.66
2019-01-30T15:34:23.124Z,94568.59
2019-01-30T15:35:59.997Z,94573.11
2019-01-30T15:37:39.349Z,94570.52
2019-01-30T15:39:18.120Z,94580.38
2019-01-30T15:40:54.900Z,94578.22
2019-01-30T15:42:49.401Z,94577.85
2019-01-30T15:44:37.142Z,94582.56
2019-01-30T15:46:18.005Z,94577.95
2019-01-30T15:48:06.011Z,94584.77
2019-01-30T15:49:48.754Z,94586.62
2019-01-30T15:51:31.860Z,94582.02
2019-01-30T15:53:16.835Z,94587.08
2019-01-30T15:54:56.746Z,94582.89
2019-01-30T15:56:37.900Z,94587.61
2019-01-30T15:58:15.738Z,94587.00
2019-01-30T15:59:57.387Z,94590.81
2019-01-30T16:01:49.226Z,94593.61
2019-01-30T16:03:25.508Z,94593.78
2019-01-30T16:05:07.072Z,94597.83
2019-01-30T16:06:42.486Z,94600.89
2019-01-30T16:08:28.089Z,94601.24
2019-01-30T16:10:06.955Z,94601.95
2019-01-30T16:11:42.795Z,94604.34
2019-01-30T16:13:18.390Z,94598.44
2019-01-30T16:14:53.737Z,94598.70
2019-01-30T16:16:30.709Z,94601.30
2019-01-30T16:18:10.282Z,94608.64
2019-01-30T16:19:56.452Z,94597.23
2019-01-30T16:21:34.092Z,94608.64
2019-01-30T16:23:12.520Z,94614.42
2019-01-30T16:25:08.832Z,94609.68
2019-01-30T16:26:52.081Z,94606.58
2019-01-30T16:28:37.763Z,94615.83
2019-01-30T16:30:23.417Z,94622.37
2019-01-30T16:32:03.705Z,94622.20
2019-01-30T16:33:39.757Z,94619.80
2019-01-30T16:35:18.905Z,94621.89
2019-01-30T16:36:59.173Z,94625.64
2019-01-30T16:38:40.171Z,94624.80
2019-01-30T16:40:20.296Z,94630.24
2019-01-30T16:41:57.445Z,94637.64
2019-01-30T16:45:39.882Z,94642.84
2019-01-30T16:47:26.950Z,94648.19
2019-01-30T16:49:06.933Z,94645.28
2019-01-30T16:50:48.796Z,94649.97
2019-01-30T16:52:25.882Z,94656.50
2019-01-30T16:54:02.527Z,94664.53
2019-01-30T16:55:48.918Z,94663.20
2019-01-30T16:57:32.006Z,94660.63
2019-01-30T16:59:19.647Z,94666.40
2019-01-30T17:01:02.624Z,94667.22
2019-01-30T17:02:46.298Z,94670.14
2019-01-30T17:04:31.182Z,94673.33
2019-01-30T17:06:18.366Z,94682.30
2019-01-30T17:07:58.658Z,94684.06
2019-01-30T17:09:45.718Z,94684.65
2019-01-30T17:11:25.216Z,94686.14
2019-01-30T17:13:00.818Z,94687.23
2019-01-30T17:14:37.337Z,94691.59
2019-01-30T17:16:14.169Z,94702.73
2019-01-30T17:17:57.378Z,94703.41
2019-01-30T17:19:47.189Z,94702.66
2019-01-30T17:21:30.470Z,94710.25
2019-01-30T17:23:07.419Z,94711.69
2019-01-30T17:25:04.393Z,94716.88
2019-01-30T17:26:46.515Z,94713.45
2019-01-30T17:28:24.566Z,94715.54
2019-01-30T17:30:06.000Z,94712.34
2019-01-30T17:31:43.430Z,94721.14
2019-01-30T17:33:19.810Z,94719.73
2019-01-30T17:35:00.610Z,94718.45
2019-01-30T17:36:42.540Z,94721.23
2019-01-30T17:38:25.159Z,94728.08
2019-01-30T17:40:10.443Z,94713.00
2019-01-30T17:41:50.191Z,94715.12
2019-01-30T17:43:39.290Z,94719.45
2019-01-30T17:45:22.248Z,94717.78
2019-01-30T17:47:05.681Z,94716.44
2019-01-30T17:48:50.936Z,94723.41
2019-01-30T17:50:35.241Z,94726.73
2019-01-30T17:52:13.784Z,94726.73
2019-01-30T17:53:55.192Z,94729.08
2019-01-30T17:55:32.258Z,94728.77
2019-01-30T17:57:09.524Z,94731.59
2019-01-30T17:58:45.205Z,94732.52
2019-01-30T18:00:29.716Z,94727.50
2019-01-30T18:02:10.475Z,94736.97
2019-01-30T18:03:53.437Z,94732.52
2019-01-30T18:05:33.096Z,94737.62
2019-01-30T18:07:10.772Z,94741.64
2019-01-30T18:08:53.967Z,94746.34
2019-01-30T18:10:35.062Z,94743.40
2019-01-30T18:12:12.955Z,94743.05
2019-01-30T18:13:52.339Z,94747.17
2019-01-30T18:15:29.412Z,94749.09
2019-01-30T18:17:11.245Z,94749.03
2019-01-30T18:18:49.892Z,94758.82
2019-01-30T18:20:32.509Z,94757.31
2019-01-30T18:22:18.797Z,94768.20
2019-01-30T18:23:56.769Z,94771.97
2019-01-30T18:25:38.456Z,94767.68
2019-01-30T18:27:17.015Z,94766.27
2019-01-30T18:28:58.405Z,94772.05
2019-01-30T18:30:38.819Z,94770.98
2019-01-30T18:32:25.850Z,94775.13
2019-01-30T18:34:02.807Z,94775.00
2019-01-30T18:35:40.227Z,94769.95
2019-01-30T18:37:18.085Z,94773.20
2019-01-30T18:38:57.932Z,94775.14
2019-01-30T18:40:48.043Z,94782.35
2019-01-30T18:42:23.372Z,94778.09
2019-01-30T18:44:03.778Z,94780.94
2019-01-30T18:45:48.347Z,94778.50
2019-01-30T18:47:41.514Z,94783.17
2019-01-30T18:49:22.937Z,94789.15
2019-01-30T18:51:02.834Z,94782.00
2019-01-30T18:52:43.243Z,94780.59
2019-01-30T18:54:25.646Z,94782.69
2019-01-30T18:56:10.178Z,94780.94
2019-01-30T18:58:01.128Z,94786.30
2019-01-30T18:59:51.790Z,94787.81
2019-01-30T19:01:36.462Z,94787.05
2019-01-30T19:03:15.802Z,94793.16
2019-01-30T19:04:52.876Z,94784.27
2019-01-30T19:06:52.023Z,94787.13
2019-01-30T19:08:20.424Z,94783.86
2019-01-30T19:10:09.264Z,94791.55
2019-01-30T19:11:44.767Z,94792.55
2019-01-30T19:13:27.453Z,94787.29
2019-01-30T19:15:09.520Z,94786.20
2019-01-30T19:16:47.919Z,94789.16
2019-01-30T19:18:33.638Z,94792.55
2019-01-30T19:20:20.489Z,94787.95
2019-01-30T19:22:02.983Z,94787.54
2019-01-30T19:23:50.113Z,94787.81
2019-01-30T19:25:26.798Z,94791.39
2019-01-30T19:27:31.038Z,94789.47